createdAt,value
2023-02-09T00:00:54.432Z,0
2023-02-09T00:01:54.597Z,0
2023-02-09T00:02:54.331Z,0
2023-02-09T00:03:54.558Z,0
2023-02-09T00:04:54.036Z,0
2023-02-09T00:05:54.204Z,0
2023-02-09T00:06:54.185Z,0
2023-02-09T00:07:54.145Z,0
2023-02-09T00:08:54.179Z,0
2023-02-09T00:09:54.065Z,0
2023-02-09T00:10:54.436Z,0
2023-02-09T00:11:53.999Z,0
2023-02-09T00:12:53.983Z,0
2023-02-09T00:13:53.907Z,0
2023-02-09T00:14:53.903Z,0
2023-02-09T00:15:53.606Z,0
2023-02-09T00:16:54.278Z,0
2023-02-09T00:17:53.799Z,0
2023-02-09T00:18:53.714Z,0
2023-02-09T00:19:53.674Z,0
2023-02-09T00:20:54.067Z,0
2023-02-09T00:21:53.614Z,0
2023-02-09T00:22:53.612Z,0
2023-02-09T00:23:53.529Z,0
2023-02-09T00:24:54.785Z,0
2023-02-09T00:25:53.441Z,0
2023-02-09T00:26:53.405Z,0
2023-02-09T00:27:53.418Z,0
2023-02-09T00:28:53.367Z,0
2023-02-09T00:29:53.294Z,0
2023-02-09T00:30:53.935Z,0
2023-02-09T00:31:53.556Z,0
2023-02-09T00:32:53.198Z,0
2023-02-09T00:33:53.153Z,0
2023-02-09T00:34:53.121Z,0
2023-02-09T00:35:53.133Z,0
2023-02-09T00:36:53.055Z,0
2023-02-09T00:37:52.980Z,0
2023-02-09T00:38:52.939Z,0
2023-02-09T00:39:52.918Z,0
2023-02-09T00:40:53.227Z,0
2023-02-09T00:41:52.832Z,0
2023-02-09T00:42:53.046Z,0
2023-02-09T00:43:52.760Z,0
2023-02-09T00:44:52.739Z,0
2023-02-09T00:45:52.974Z,0
2023-02-09T00:46:52.660Z,0
2023-02-09T00:47:52.627Z,0
2023-02-09T00:48:52.596Z,0
2023-02-09T00:49:52.530Z,0
2023-02-09T00:50:52.707Z,0
2023-02-09T00:51:52.477Z,0
2023-02-09T00:52:52.418Z,0
2023-02-09T00:53:52.377Z,0
2023-02-09T00:54:52.332Z,0
2023-02-09T00:55:52.315Z,0
2023-02-09T00:56:52.331Z,0
2023-02-09T00:57:52.217Z,0
2023-02-09T00:58:52.174Z,0
2023-02-09T00:59:52.136Z,0
2023-02-09T01:00:52.864Z,0
2023-02-09T01:01:51.899Z,0
2023-02-09T01:02:51.802Z,0
2023-02-09T01:03:51.993Z,0
2023-02-09T01:04:52.307Z,0
2023-02-09T01:05:51.945Z,0
2023-02-09T01:06:51.879Z,0
2023-02-09T01:07:51.845Z,0
2023-02-09T01:08:51.819Z,0
2023-02-09T01:09:51.805Z,0
2023-02-09T01:10:52.354Z,0
2023-02-09T01:11:51.682Z,0
2023-02-09T01:12:51.728Z,0
2023-02-09T01:13:51.609Z,0
2023-02-09T01:14:51.554Z,0
2023-02-09T01:15:51.517Z,0
2023-02-09T01:16:51.883Z,0
2023-02-09T01:17:51.212Z,0
2023-02-09T01:18:51.419Z,0
2023-02-09T01:19:51.410Z,0
2023-02-09T01:20:52.103Z,0
2023-02-09T01:21:51.299Z,0
2023-02-09T01:22:51.015Z,0
2023-02-09T01:23:51.235Z,0
2023-02-09T01:24:51.191Z,0
2023-02-09T01:25:51.128Z,0
2023-02-09T01:26:51.094Z,0
2023-02-09T01:27:51.145Z,0
2023-02-09T01:28:51.058Z,0
2023-02-09T01:29:50.996Z,0
2023-02-09T01:30:52.671Z,0
2023-02-09T01:31:51.570Z,0
2023-02-09T01:32:50.880Z,0
2023-02-09T01:33:50.823Z,0
2023-02-09T01:34:50.860Z,0
2023-02-09T01:35:50.754Z,0
2023-02-09T01:36:50.785Z,0
2023-02-09T01:37:50.682Z,0
2023-02-09T01:38:50.751Z,0
2023-02-09T01:39:50.662Z,0
2023-02-09T01:40:51.328Z,0
2023-02-09T01:41:50.516Z,0
2023-02-09T01:42:50.488Z,0
2023-02-09T01:43:50.446Z,0
2023-02-09T01:44:50.463Z,0
2023-02-09T01:45:50.368Z,0
2023-02-09T01:46:50.100Z,0
2023-02-09T01:47:50.295Z,0
2023-02-09T01:48:50.263Z,0
2023-02-09T01:49:50.248Z,0
2023-02-09T01:50:50.930Z,0
2023-02-09T01:51:50.135Z,0
2023-02-09T01:52:50.086Z,0
2023-02-09T01:53:50.044Z,0
2023-02-09T01:54:50.036Z,0
2023-02-09T01:55:49.969Z,0
2023-02-09T01:56:49.967Z,0
2023-02-09T01:57:49.659Z,0
2023-02-09T01:58:49.865Z,0
2023-02-09T01:59:49.820Z,0
2023-02-09T02:00:50.728Z,0
2023-02-09T02:01:50.071Z,0
2023-02-09T02:02:50.034Z,0
2023-02-09T02:03:49.675Z,0
2023-02-09T02:04:49.649Z,0
2023-02-09T02:05:49.578Z,0
2023-02-09T02:06:49.550Z,0
2023-02-09T02:07:49.500Z,0
2023-02-09T02:08:49.469Z,0
2023-02-09T02:09:49.430Z,0
2023-02-09T02:10:50.373Z,0
2023-02-09T02:11:49.368Z,0
2023-02-09T02:12:49.359Z,0
2023-02-09T02:13:49.297Z,0
2023-02-09T02:14:49.264Z,0
2023-02-09T02:15:49.473Z,0
2023-02-09T02:16:49.211Z,0
2023-02-09T02:17:49.133Z,0
2023-02-09T02:18:49.070Z,0
2023-02-09T02:19:49.060Z,0
2023-02-09T02:20:49.878Z,0
2023-02-09T02:21:48.961Z,0
2023-02-09T02:22:48.926Z,0
2023-02-09T02:23:48.886Z,0
2023-02-09T02:24:48.868Z,0
2023-02-09T02:25:48.796Z,0
2023-02-09T02:26:48.802Z,0
2023-02-09T02:27:48.724Z,0
2023-02-09T02:28:48.722Z,0
2023-02-09T02:29:48.646Z,0
2023-02-09T02:30:50.214Z,0
2023-02-09T02:31:49.002Z,0
2023-02-09T02:32:48.605Z,0
2023-02-09T02:33:48.500Z,0
2023-02-09T02:34:48.484Z,0
2023-02-09T02:35:48.448Z,0
2023-02-09T02:36:48.446Z,0
2023-02-09T02:37:48.118Z,0
2023-02-09T02:38:48.291Z,0
2023-02-09T02:39:48.024Z,0
2023-02-09T02:40:49.127Z,0
2023-02-09T02:41:48.209Z,0
2023-02-09T02:42:48.166Z,0
2023-02-09T02:43:48.129Z,0
2023-02-09T02:44:48.106Z,0
2023-02-09T02:45:48.073Z,0
2023-02-09T02:46:48.327Z,0
2023-02-09T02:47:47.962Z,0
2023-02-09T02:48:47.970Z,0
2023-02-09T02:49:47.911Z,0
2023-02-09T02:50:48.962Z,0
2023-02-09T02:51:47.810Z,0
2023-02-09T02:52:47.792Z,0
2023-02-09T02:53:47.732Z,0
2023-02-09T02:54:47.688Z,0
2023-02-09T02:55:47.652Z,0
2023-02-09T02:56:47.615Z,0
2023-02-09T02:57:47.357Z,0
2023-02-09T02:58:47.313Z,0
2023-02-09T02:59:47.500Z,0
2023-02-09T03:00:48.449Z,0
2023-02-09T03:01:47.685Z,0
2023-02-09T03:02:47.445Z,0
2023-02-09T03:03:47.360Z,0
2023-02-09T03:04:47.376Z,0
2023-02-09T03:05:47.530Z,0
2023-02-09T03:06:47.252Z,0
2023-02-09T03:07:46.976Z,0
2023-02-09T03:08:47.172Z,0
2023-02-09T03:09:47.126Z,0
2023-02-09T03:10:48.031Z,0
2023-02-09T03:11:47.052Z,0
2023-02-09T03:12:47.006Z,0
2023-02-09T03:13:46.992Z,0
2023-02-09T03:14:46.927Z,0
2023-02-09T03:15:47.077Z,0
2023-02-09T03:16:46.912Z,0
2023-02-09T03:17:46.855Z,0
2023-02-09T03:18:46.771Z,0
2023-02-09T03:19:46.769Z,0
2023-02-09T03:20:47.459Z,0
2023-02-09T03:21:46.413Z,0
2023-02-09T03:22:46.620Z,0
2023-02-09T03:23:46.587Z,0
2023-02-09T03:24:46.577Z,0
2023-02-09T03:25:46.515Z,0
2023-02-09T03:26:46.466Z,0
2023-02-09T03:27:46.483Z,0
2023-02-09T03:28:46.420Z,0
2023-02-09T03:29:46.130Z,0
2023-02-09T03:30:47.291Z,0
2023-02-09T03:31:46.492Z,0
2023-02-09T03:32:46.272Z,0
2023-02-09T03:33:46.196Z,0
2023-02-09T03:34:46.228Z,0
2023-02-09T03:35:46.117Z,0
2023-02-09T03:36:46.126Z,0
2023-02-09T03:37:46.084Z,0
2023-02-09T03:38:46.004Z,0
2023-02-09T03:39:45.982Z,0
2023-02-09T03:40:46.699Z,0
2023-02-09T03:41:45.897Z,0
2023-02-09T03:42:45.854Z,0
2023-02-09T03:43:45.809Z,0
2023-02-09T03:44:45.771Z,0
2023-02-09T03:45:45.739Z,0
2023-02-09T03:46:46.029Z,0
2023-02-09T03:47:45.657Z,0
2023-02-09T03:48:45.643Z,0
2023-02-09T03:49:45.608Z,0
2023-02-09T03:50:46.435Z,0
2023-02-09T03:51:45.547Z,0
2023-02-09T03:52:45.517Z,0
2023-02-09T03:53:45.436Z,0
2023-02-09T03:54:45.410Z,0
2023-02-09T03:55:45.346Z,0
2023-02-09T03:56:45.482Z,0
2023-02-09T03:57:45.342Z,0
2023-02-09T03:58:45.250Z,0
2023-02-09T03:59:45.209Z,0
2023-02-09T04:00:46.005Z,0
2023-02-09T04:01:45.142Z,0
2023-02-09T04:02:45.413Z,0
2023-02-09T04:03:45.041Z,0
2023-02-09T04:04:44.889Z,0
2023-02-09T04:05:44.957Z,0
2023-02-09T04:06:44.922Z,0
2023-02-09T04:07:44.868Z,0
2023-02-09T04:08:44.909Z,0
2023-02-09T04:09:44.808Z,0
2023-02-09T04:10:45.130Z,0
2023-02-09T04:11:44.786Z,0
2023-02-09T04:12:44.783Z,0
2023-02-09T04:13:44.652Z,0
2023-02-09T04:14:44.622Z,0
2023-02-09T04:15:44.576Z,0
2023-02-09T04:16:44.754Z,0
2023-02-09T04:17:44.514Z,0
2023-02-09T04:18:44.457Z,0
2023-02-09T04:19:44.424Z,0
2023-02-09T04:20:44.704Z,0
2023-02-09T04:21:44.362Z,0
2023-02-09T04:22:44.301Z,0
2023-02-09T04:23:44.299Z,0
2023-02-09T04:24:44.277Z,0
2023-02-09T04:25:44.200Z,0
2023-02-09T04:26:44.140Z,0
2023-02-09T04:27:44.154Z,0
2023-02-09T04:28:44.100Z,0
2023-02-09T04:29:44.046Z,0
2023-02-09T04:30:44.366Z,0
2023-02-09T04:31:44.270Z,0
2023-02-09T04:32:43.928Z,0
2023-02-09T04:33:43.943Z,0
2023-02-09T04:34:43.874Z,0
2023-02-09T04:35:43.808Z,0
2023-02-09T04:36:43.785Z,0
2023-02-09T04:37:43.732Z,0
2023-02-09T04:38:43.702Z,0
2023-02-09T04:39:43.665Z,0
2023-02-09T04:40:43.970Z,0
2023-02-09T04:41:43.580Z,0
2023-02-09T04:42:43.527Z,0
2023-02-09T04:43:43.263Z,0
2023-02-09T04:44:43.470Z,0
2023-02-09T04:45:43.419Z,0
2023-02-09T04:46:45.611Z,0
2023-02-09T04:47:43.358Z,0
2023-02-09T04:48:43.331Z,0
2023-02-09T04:49:43.269Z,0
2023-02-09T04:50:43.567Z,0
2023-02-09T04:51:43.191Z,0
2023-02-09T04:52:43.165Z,0
2023-02-09T04:53:43.153Z,0
2023-02-09T04:54:43.061Z,0
2023-02-09T04:55:43.031Z,0
2023-02-09T04:56:44.821Z,0
2023-02-09T04:57:42.949Z,0
2023-02-09T04:58:42.931Z,0
2023-02-09T04:59:42.875Z,0
2023-02-09T05:00:43.066Z,0
2023-02-09T05:01:42.884Z,0
2023-02-09T05:02:42.757Z,0
2023-02-09T05:03:43.082Z,0
2023-02-09T05:04:42.682Z,0
2023-02-09T05:05:42.668Z,0
2023-02-09T05:06:42.620Z,0
2023-02-09T05:07:42.572Z,0
2023-02-09T05:08:42.576Z,0
2023-02-09T05:09:42.485Z,0
2023-02-09T05:10:42.468Z,0
2023-02-09T05:11:42.403Z,0
2023-02-09T05:12:42.415Z,0
2023-02-09T05:13:42.363Z,0
2023-02-09T05:14:42.052Z,0
2023-02-09T05:15:42.260Z,0
2023-02-09T05:16:44.336Z,0
2023-02-09T05:17:41.940Z,0
2023-02-09T05:18:42.158Z,0
2023-02-09T05:19:42.099Z,0
2023-02-09T05:20:42.087Z,0
2023-02-09T05:21:42.023Z,0
2023-02-09T05:22:41.994Z,0
2023-02-09T05:23:41.943Z,0
2023-02-09T05:24:41.945Z,0
2023-02-09T05:25:41.888Z,0
2023-02-09T05:26:41.905Z,0
2023-02-09T05:27:41.792Z,0
2023-02-09T05:28:41.832Z,0
2023-02-09T05:29:41.747Z,0
2023-02-09T05:30:41.894Z,0
2023-02-09T05:31:42.111Z,0
2023-02-09T05:32:41.711Z,0
2023-02-09T05:33:41.665Z,0
2023-02-09T05:34:41.516Z,0
2023-02-09T05:35:41.488Z,0
2023-02-09T05:36:41.447Z,0
2023-02-09T05:37:41.411Z,0
2023-02-09T05:38:41.404Z,0
2023-02-09T05:39:41.310Z,0
2023-02-09T05:40:41.086Z,0
2023-02-09T05:41:41.259Z,0
2023-02-09T05:42:41.360Z,0
2023-02-09T05:43:41.170Z,0
2023-02-09T05:44:41.196Z,0
2023-02-09T05:45:41.381Z,0
2023-02-09T05:46:41.084Z,0
2023-02-09T05:47:41.024Z,0
2023-02-09T05:48:41.015Z,0
2023-02-09T05:49:40.929Z,0
2023-02-09T05:50:40.659Z,0
2023-02-09T05:51:40.847Z,0
2023-02-09T05:52:40.847Z,0
2023-02-09T05:53:40.779Z,0
2023-02-09T05:54:40.763Z,0
2023-02-09T05:55:40.728Z,0
2023-02-09T05:56:40.684Z,0
2023-02-09T05:57:40.623Z,0
2023-02-09T05:58:40.578Z,0
2023-02-09T05:59:40.599Z,0
2023-02-09T06:00:40.600Z,0
2023-02-09T06:01:40.466Z,0
2023-02-09T06:02:40.764Z,0
2023-02-09T06:03:40.621Z,0
2023-02-09T06:04:40.389Z,0
2023-02-09T06:05:40.377Z,0
2023-02-09T06:06:40.279Z,0
2023-02-09T06:07:40.244Z,0
2023-02-09T06:08:40.197Z,0
2023-02-09T06:09:40.169Z,0
2023-02-09T06:10:40.121Z,0
2023-02-09T06:11:40.205Z,0
2023-02-09T06:12:41.323Z,0
2023-02-09T06:13:39.570Z,0
2023-02-09T06:14:39.976Z,0
2023-02-09T06:15:40.117Z,0
2023-02-09T06:16:39.936Z,4
2023-02-09T06:17:39.849Z,0
2023-02-09T06:18:39.801Z,0
2023-02-09T06:19:39.784Z,0
2023-02-09T06:20:39.760Z,4
2023-02-09T06:21:39.695Z,0
2023-02-09T06:22:39.661Z,4
2023-02-09T06:23:42.199Z,4
2023-02-09T06:24:39.596Z,4
2023-02-09T06:25:39.545Z,4
2023-02-09T06:26:39.490Z,4
2023-02-09T06:27:39.479Z,4
2023-02-09T06:28:39.568Z,8
2023-02-09T06:29:39.374Z,8
2023-02-09T06:30:40.418Z,12
2023-02-09T06:31:39.957Z,12
2023-02-09T06:32:39.338Z,16
2023-02-09T06:33:39.348Z,16
2023-02-09T06:34:39.231Z,20
2023-02-09T06:35:39.167Z,24
2023-02-09T06:36:39.189Z,28
2023-02-09T06:37:39.093Z,36
2023-02-09T06:38:39.089Z,40
2023-02-09T06:39:39.028Z,48
2023-02-09T06:40:38.957Z,56
2023-02-09T06:41:38.935Z,68
2023-02-09T06:42:38.884Z,76
2023-02-09T06:43:38.855Z,92
2023-02-09T06:44:38.828Z,104
2023-02-09T06:45:38.783Z,120
2023-02-09T06:46:38.977Z,140
2023-02-09T06:47:38.965Z,156
2023-02-09T06:48:39.068Z,180
2023-02-09T06:49:38.926Z,200
2023-02-09T06:50:39.061Z,228
2023-02-09T06:51:39.055Z,252
2023-02-09T06:52:38.526Z,276
2023-02-09T06:53:38.447Z,300
2023-02-09T06:54:38.432Z,332
2023-02-09T06:55:38.383Z,368
2023-02-09T06:56:38.329Z,400
2023-02-09T06:57:38.288Z,432
2023-02-09T06:58:38.269Z,472
2023-02-09T06:59:38.557Z,512
2023-02-09T07:00:38.431Z,556
2023-02-09T07:01:38.798Z,600
2023-02-09T07:02:38.421Z,648
2023-02-09T07:03:38.135Z,700
2023-02-09T07:04:38.115Z,756
2023-02-09T07:05:38.035Z,812
2023-02-09T07:06:37.963Z,876
2023-02-09T07:07:38.162Z,936
2023-02-09T07:08:37.909Z,1000
2023-02-09T07:09:37.587Z,1064
2023-02-09T07:10:37.870Z,1136
2023-02-09T07:11:37.771Z,1200
2023-02-09T07:12:40.361Z,1272
2023-02-09T07:13:37.719Z,1340
2023-02-09T07:14:37.639Z,1416
2023-02-09T07:15:37.673Z,1484
2023-02-09T07:16:37.637Z,1560
2023-02-09T07:17:37.560Z,1628
2023-02-09T07:18:37.487Z,1704
2023-02-09T07:19:37.452Z,1776
2023-02-09T07:20:37.503Z,1844
2023-02-09T07:21:37.243Z,1912
2023-02-09T07:22:37.377Z,1980
2023-02-09T07:23:37.317Z,2048
2023-02-09T07:24:37.289Z,2112
2023-02-09T07:25:37.218Z,2176
2023-02-09T07:26:37.203Z,2244
2023-02-09T07:27:37.157Z,2316
2023-02-09T07:28:37.556Z,2380
2023-02-09T07:29:37.065Z,2448
2023-02-09T07:30:37.441Z,2508
2023-02-09T07:31:37.389Z,2560
2023-02-09T07:32:37.115Z,2596
2023-02-09T07:33:37.016Z,2644
2023-02-09T07:34:36.885Z,2708
2023-02-09T07:35:36.841Z,2776
2023-02-09T07:36:37.300Z,2844
2023-02-09T07:37:36.801Z,2912
2023-02-09T07:38:37.089Z,2968
2023-02-09T07:39:37.190Z,3048
2023-02-09T07:40:36.758Z,3120
2023-02-09T07:41:36.637Z,3172
2023-02-09T07:42:36.575Z,3224
2023-02-09T07:43:36.562Z,3288
2023-02-09T07:44:36.524Z,3344
2023-02-09T07:45:36.583Z,3392
2023-02-09T07:46:36.727Z,3420
2023-02-09T07:47:36.404Z,3444
2023-02-09T07:48:36.406Z,3512
2023-02-09T07:49:36.321Z,3552
2023-02-09T07:50:37.464Z,3600
2023-02-09T07:51:38.140Z,3652
2023-02-09T07:52:36.258Z,3704
2023-02-09T07:53:36.269Z,3768
2023-02-09T07:54:36.118Z,3828
2023-02-09T07:55:36.080Z,3896
2023-02-09T07:56:36.091Z,3968
2023-02-09T07:57:36.320Z,4036
2023-02-09T07:58:35.957Z,4088
2023-02-09T07:59:35.934Z,4136
2023-02-09T08:00:35.889Z,4164
2023-02-09T08:01:35.784Z,4200
2023-02-09T08:02:35.817Z,4248
2023-02-09T08:03:35.828Z,4296
2023-02-09T08:04:35.757Z,4344
2023-02-09T08:05:35.928Z,4384
2023-02-09T08:06:48.680Z,2720
2023-02-09T08:07:35.381Z,4440
2023-02-09T08:08:35.698Z,4456
2023-02-09T08:09:35.582Z,4484
2023-02-09T08:10:35.522Z,4536
2023-02-09T08:11:35.513Z,4596
2023-02-09T08:12:35.294Z,4648
2023-02-09T08:13:35.433Z,4676
2023-02-09T08:14:34.898Z,4720
2023-02-09T08:15:35.439Z,4768
2023-02-09T08:16:35.642Z,4812
2023-02-09T08:17:35.051Z,4820
2023-02-09T08:18:35.235Z,4816
2023-02-09T08:19:35.241Z,4836
2023-02-09T08:20:35.194Z,4852
2023-02-09T08:21:35.134Z,4868
2023-02-09T08:22:35.092Z,4880
2023-02-09T08:23:35.143Z,4928
2023-02-09T08:24:35.053Z,4932
2023-02-09T08:25:35.025Z,4952
2023-02-09T08:26:35.046Z,4988
2023-02-09T08:27:34.905Z,5008
2023-02-09T08:28:50.686Z,5052
2023-02-09T08:29:34.832Z,5076
2023-02-09T08:30:34.782Z,5120
2023-02-09T08:31:35.423Z,5156
2023-02-09T08:32:34.765Z,5172
2023-02-09T08:33:34.681Z,5196
2023-02-09T08:34:34.630Z,5252
2023-02-09T08:35:37.407Z,5304
2023-02-09T08:36:34.692Z,5352
2023-02-09T08:37:34.556Z,5408
2023-02-09T08:38:34.257Z,5488
2023-02-09T08:39:34.451Z,5548
2023-02-09T08:40:34.509Z,5584
2023-02-09T08:41:33.915Z,5616
2023-02-09T08:42:34.359Z,5652
2023-02-09T08:43:34.351Z,5692
2023-02-09T08:44:34.327Z,5724
2023-02-09T08:45:34.933Z,3040
2023-02-09T08:46:34.952Z,3784
2023-02-09T08:47:34.182Z,3756
2023-02-09T08:48:35.887Z,3780
2023-02-09T08:49:34.099Z,3704
2023-02-09T08:50:34.069Z,3764
2023-02-09T08:51:34.077Z,3704
2023-02-09T08:52:34.005Z,3796
2023-02-09T08:53:33.952Z,3900
2023-02-09T08:54:33.687Z,3772
2023-02-09T08:55:33.882Z,3788
2023-02-09T08:56:33.952Z,4136
2023-02-09T08:57:49.890Z,3760
2023-02-09T08:58:33.799Z,3740
2023-02-09T08:59:33.616Z,6204
2023-02-09T09:00:33.498Z,6224
2023-02-09T09:01:34.080Z,6220
2023-02-09T09:02:33.875Z,6236
2023-02-09T09:03:34.140Z,6276
2023-02-09T09:04:33.626Z,6316
2023-02-09T09:05:36.549Z,6312
2023-02-09T09:06:33.511Z,6324
2023-02-09T09:07:33.327Z,6308
2023-02-09T09:08:33.427Z,6300
2023-02-09T09:09:33.385Z,6288
2023-02-09T09:10:33.380Z,6296
2023-02-09T09:11:33.117Z,6284
2023-02-09T09:12:33.343Z,6264
2023-02-09T09:13:33.017Z,6200
2023-02-09T09:14:32.959Z,6144
2023-02-09T09:15:33.189Z,6104
2023-02-09T09:16:33.366Z,6108
2023-02-09T09:17:33.101Z,6128
2023-02-09T09:18:33.077Z,6168
2023-02-09T09:19:33.035Z,6208
2023-02-09T09:20:33.012Z,6248
2023-02-09T09:21:32.720Z,6252
2023-02-09T09:22:32.724Z,6244
2023-02-09T09:23:32.912Z,6244
2023-02-09T09:24:32.845Z,6252
2023-02-09T09:25:32.823Z,6248
2023-02-09T09:26:32.820Z,6268
2023-02-09T09:27:33.941Z,6256
2023-02-09T09:28:33.092Z,6244
2023-02-09T09:29:32.671Z,6280
2023-02-09T09:30:32.639Z,6372
2023-02-09T09:31:33.299Z,6432
2023-02-09T09:32:33.367Z,6472
2023-02-09T09:33:32.533Z,6488
2023-02-09T09:34:32.526Z,6472
2023-02-09T09:35:32.496Z,6508
2023-02-09T09:36:32.448Z,6508
2023-02-09T09:37:32.333Z,6508
2023-02-09T09:38:32.377Z,6552
2023-02-09T09:39:32.389Z,6616
2023-02-09T09:40:32.318Z,6632
2023-02-09T09:41:32.269Z,6624
2023-02-09T09:42:32.220Z,6604
2023-02-09T09:43:32.181Z,6596
2023-02-09T09:44:32.249Z,6600
2023-02-09T09:45:31.874Z,6644
2023-02-09T09:46:32.420Z,6668
2023-02-09T09:47:32.032Z,6628
2023-02-09T09:48:32.025Z,6636
2023-02-09T09:49:31.973Z,6708
2023-02-09T09:50:33.580Z,6776
2023-02-09T09:51:31.896Z,6808
2023-02-09T09:52:32.008Z,6808
2023-02-09T09:53:31.828Z,6780
2023-02-09T09:54:31.809Z,6816
2023-02-09T09:55:31.800Z,6844
2023-02-09T09:56:34.352Z,6828
2023-02-09T09:57:31.751Z,6804
2023-02-09T09:58:31.664Z,6804
2023-02-09T09:59:31.639Z,6848
2023-02-09T10:00:31.631Z,6876
2023-02-09T10:01:32.055Z,6916
2023-02-09T10:02:31.541Z,6948
2023-02-09T10:03:31.501Z,7012
2023-02-09T10:04:31.742Z,7036
2023-02-09T10:05:31.456Z,7128
2023-02-09T10:06:31.398Z,7236
2023-02-09T10:07:31.360Z,7312
2023-02-09T10:08:31.330Z,7356
2023-02-09T10:09:31.040Z,7416
2023-02-09T10:10:31.240Z,7440
2023-02-09T10:11:31.276Z,7532
2023-02-09T10:12:31.178Z,7532
2023-02-09T10:13:31.146Z,7584
2023-02-09T10:14:31.100Z,7628
2023-02-09T10:15:31.154Z,7672
2023-02-09T10:16:31.184Z,7704
2023-02-09T10:17:31.006Z,7688
2023-02-09T10:18:30.961Z,7696
2023-02-09T10:19:30.951Z,7736
2023-02-09T10:20:30.697Z,7748
2023-02-09T10:21:30.892Z,7764
2023-02-09T10:22:30.827Z,7708
2023-02-09T10:23:30.825Z,7728
2023-02-09T10:24:30.773Z,7644
2023-02-09T10:25:30.734Z,7632
2023-02-09T10:26:30.729Z,7692
2023-02-09T10:27:30.682Z,7620
2023-02-09T10:28:31.073Z,7632
2023-02-09T10:29:30.621Z,7704
2023-02-09T10:30:30.722Z,7796
2023-02-09T10:31:31.275Z,7868
2023-02-09T10:32:30.573Z,7932
2023-02-09T10:33:30.442Z,8012
2023-02-09T10:34:30.451Z,8060
2023-02-09T10:35:30.411Z,8080
2023-02-09T10:36:30.393Z,8056
2023-02-09T10:37:30.110Z,8012
2023-02-09T10:38:32.093Z,8024
2023-02-09T10:39:30.270Z,8004
2023-02-09T10:40:30.219Z,8064
2023-02-09T10:41:29.708Z,8084
2023-02-09T10:42:29.930Z,8204
2023-02-09T10:43:30.158Z,8260
2023-02-09T10:44:30.105Z,8304
2023-02-09T10:45:30.051Z,8332
2023-02-09T10:46:30.307Z,8364
2023-02-09T10:47:29.782Z,8376
2023-02-09T10:48:30.010Z,8356
2023-02-09T10:49:29.926Z,8184
2023-02-09T10:50:29.861Z,8168
2023-02-09T10:51:29.732Z,8148
2023-02-09T10:52:29.579Z,8176
2023-02-09T10:53:29.778Z,8196
2023-02-09T10:54:29.498Z,8240
2023-02-09T10:55:29.458Z,8284
2023-02-09T10:56:29.660Z,8284
2023-02-09T10:57:29.666Z,8288
2023-02-09T10:58:29.614Z,8252
2023-02-09T10:59:29.704Z,8220
2023-02-09T11:00:29.567Z,8236
2023-02-09T11:01:29.858Z,8312
2023-02-09T11:02:29.504Z,8364
2023-02-09T11:03:29.487Z,8328
2023-02-09T11:04:29.714Z,8232
2023-02-09T11:05:29.392Z,8220
2023-02-09T11:06:29.368Z,8212
2023-02-09T11:07:31.202Z,8160
2023-02-09T11:08:29.318Z,8084
2023-02-09T11:09:29.235Z,8004
2023-02-09T11:10:28.967Z,7972
2023-02-09T11:11:29.198Z,7896
2023-02-09T11:12:29.171Z,7908
2023-02-09T11:13:30.939Z,7884
2023-02-09T11:14:29.078Z,7864
2023-02-09T11:15:28.872Z,7800
2023-02-09T11:16:29.483Z,7788
2023-02-09T11:17:28.746Z,7860
2023-02-09T11:18:30.155Z,7928
2023-02-09T11:19:28.474Z,7896
2023-02-09T11:20:29.015Z,7936
2023-02-09T11:21:28.908Z,7956
2023-02-09T11:22:33.708Z,7940
2023-02-09T11:23:28.799Z,7936
2023-02-09T11:24:31.014Z,7892
2023-02-09T11:25:28.733Z,7816
2023-02-09T11:26:28.723Z,7784
2023-02-09T11:27:30.815Z,7784
2023-02-09T11:28:29.055Z,7760
2023-02-09T11:29:28.593Z,7812
2023-02-09T11:30:28.506Z,7872
2023-02-09T11:31:29.114Z,7956
2023-02-09T11:32:28.485Z,8188
2023-02-09T11:33:28.212Z,8312
2023-02-09T11:34:31.003Z,8408
2023-02-09T11:35:28.387Z,8408
2023-02-09T11:36:28.435Z,8408
2023-02-09T11:37:28.342Z,8524
2023-02-09T11:38:28.286Z,8572
2023-02-09T11:39:28.272Z,8660
2023-02-09T11:40:27.996Z,8664
2023-02-09T11:41:28.185Z,8624
2023-02-09T11:42:27.928Z,8604
2023-02-09T11:43:28.119Z,8604
2023-02-09T11:44:28.097Z,8488
2023-02-09T11:45:28.054Z,8508
2023-02-09T11:46:28.273Z,8560
2023-02-09T11:47:28.219Z,8608
2023-02-09T11:48:27.724Z,8660
2023-02-09T11:49:27.932Z,8628
2023-02-09T11:50:27.884Z,8604
2023-02-09T11:51:27.864Z,8688
2023-02-09T11:52:27.882Z,8632
2023-02-09T11:53:27.804Z,8568
2023-02-09T11:54:27.782Z,8588
2023-02-09T11:55:27.727Z,8600
2023-02-09T11:56:27.755Z,8612
2023-02-09T11:57:27.661Z,8560
2023-02-09T11:58:27.628Z,8588
2023-02-09T11:59:27.612Z,8636
2023-02-09T12:00:27.569Z,8720
2023-02-09T12:01:28.165Z,8708
2023-02-09T12:02:30.775Z,8744
2023-02-09T12:03:27.466Z,8752
2023-02-09T12:04:27.470Z,8796
2023-02-09T12:05:27.483Z,8800
2023-02-09T12:06:27.869Z,8752
2023-02-09T12:07:27.098Z,8756
2023-02-09T12:08:27.352Z,8944
2023-02-09T12:09:27.053Z,9080
2023-02-09T12:10:27.254Z,9172
2023-02-09T12:11:27.271Z,9192
2023-02-09T12:12:27.202Z,9240
2023-02-09T12:13:27.140Z,9312
2023-02-09T12:14:27.103Z,9332
2023-02-09T12:15:27.139Z,9368
2023-02-09T12:16:27.421Z,9404
2023-02-09T12:17:27.021Z,9404
2023-02-09T12:18:27.027Z,9384
2023-02-09T12:19:26.967Z,9428
2023-02-09T12:20:27.131Z,9488
2023-02-09T12:21:26.912Z,9572
2023-02-09T12:22:26.883Z,9668
2023-02-09T12:23:26.893Z,9688
2023-02-09T12:24:26.877Z,9908
2023-02-09T12:25:26.775Z,9900
2023-02-09T12:26:26.726Z,9836
2023-02-09T12:27:26.704Z,9820
2023-02-09T12:28:27.059Z,9872
2023-02-09T12:29:26.667Z,9860
2023-02-09T12:30:26.643Z,9748
2023-02-09T12:31:27.326Z,9740
2023-02-09T12:32:26.867Z,9564
2023-02-09T12:33:26.670Z,9516
2023-02-09T12:34:26.505Z,9412
2023-02-09T12:35:26.445Z,9372
2023-02-09T12:36:26.496Z,9296
2023-02-09T12:37:32.094Z,9124
2023-02-09T12:38:26.343Z,9016
2023-02-09T12:39:31.102Z,8780
2023-02-09T12:40:26.336Z,8756
2023-02-09T12:41:26.008Z,8744
2023-02-09T12:42:26.217Z,8728
2023-02-09T12:43:25.934Z,8732
2023-02-09T12:44:25.944Z,8644
2023-02-09T12:45:26.024Z,8608
2023-02-09T12:46:26.511Z,8692
2023-02-09T12:47:25.826Z,8808
2023-02-09T12:48:25.831Z,8872
2023-02-09T12:49:25.773Z,8776
2023-02-09T12:50:25.991Z,8820
2023-02-09T12:51:25.921Z,8712
2023-02-09T12:52:25.949Z,8632
2023-02-09T12:53:25.675Z,8512
2023-02-09T12:54:25.848Z,8396
2023-02-09T12:55:25.879Z,8384
2023-02-09T12:56:25.777Z,8364
2023-02-09T12:57:25.747Z,8360
2023-02-09T12:58:25.718Z,8436
2023-02-09T12:59:25.873Z,8436
2023-02-09T13:00:25.784Z,8520
2023-02-09T13:01:25.602Z,8628
2023-02-09T13:02:25.451Z,8700
2023-02-09T13:03:25.355Z,8840
2023-02-09T13:04:25.721Z,8896
2023-02-09T13:05:25.526Z,8900
2023-02-09T13:06:25.240Z,8936
2023-02-09T13:07:25.436Z,8984
2023-02-09T13:08:25.404Z,9068
2023-02-09T13:09:25.367Z,9116
2023-02-09T13:10:25.337Z,9200
2023-02-09T13:11:25.356Z,9368
2023-02-09T13:12:25.052Z,9444
2023-02-09T13:13:25.363Z,9456
2023-02-09T13:14:24.989Z,9508
2023-02-09T13:15:25.175Z,9552
2023-02-09T13:16:25.392Z,9484
2023-02-09T13:17:25.104Z,9440
2023-02-09T13:18:25.073Z,9524
2023-02-09T13:19:25.051Z,9556
2023-02-09T13:20:25.019Z,9568
2023-02-09T13:21:26.908Z,9496
2023-02-09T13:22:24.983Z,9440
2023-02-09T13:23:24.727Z,9456
2023-02-09T13:24:24.954Z,9464
2023-02-09T13:25:24.870Z,9436
2023-02-09T13:26:24.866Z,9420
2023-02-09T13:27:24.896Z,9404
2023-02-09T13:28:25.255Z,9432
2023-02-09T13:29:28.693Z,9384
2023-02-09T13:30:24.449Z,9396
2023-02-09T13:31:24.929Z,9336
2023-02-09T13:32:24.705Z,9236
2023-02-09T13:33:24.632Z,9184
2023-02-09T13:34:24.580Z,9172
2023-02-09T13:35:24.554Z,9112
2023-02-09T13:36:31.867Z,9188
2023-02-09T13:37:24.535Z,9152
2023-02-09T13:38:25.139Z,9028
2023-02-09T13:39:24.413Z,9012
2023-02-09T13:40:24.388Z,8872
2023-02-09T13:41:24.575Z,8844
2023-02-09T13:42:24.317Z,8844
2023-02-09T13:43:24.440Z,8832
2023-02-09T13:44:24.255Z,8740
2023-02-09T13:45:24.262Z,8832
2023-02-09T13:46:24.574Z,8840
2023-02-09T13:47:23.945Z,8780
2023-02-09T13:48:23.984Z,8576
2023-02-09T13:49:23.855Z,8488
2023-02-09T13:50:23.837Z,8432
2023-02-09T13:51:24.094Z,8388
2023-02-09T13:52:24.041Z,8344
2023-02-09T13:53:26.930Z,8324
2023-02-09T13:54:23.993Z,8316
2023-02-09T13:55:23.706Z,8328
2023-02-09T13:56:23.963Z,8336
2023-02-09T13:57:23.842Z,8352
2023-02-09T13:58:23.985Z,8380
2023-02-09T13:59:23.831Z,8412